createdAt,value
2018-01-20T00:01:40.999Z,97822.61
2018-01-20T00:04:09.015Z,97827.16
2018-01-20T00:06:36.833Z,97823.81
2018-01-20T00:09:04.705Z,97831.29
2018-01-20T00:11:44.130Z,97825.81
2018-01-20T00:14:11.793Z,97825.06
2018-01-20T00:16:39.432Z,97826.86
2018-01-20T00:19:07.186Z,97822.30
2018-01-20T00:21:34.802Z,97815.78
2018-01-20T00:24:02.403Z,97811.38
2018-01-20T00:26:35.790Z,97817.95
2018-01-20T00:29:03.457Z,97821.99
2018-01-20T00:31:31.318Z,97818.42
2018-01-20T00:33:58.957Z,97815.63
2018-01-20T00:36:26.700Z,97820.44
2018-01-20T00:38:54.447Z,97812.09
2018-01-20T00:41:22.230Z,97808.23
2018-01-20T00:43:50.247Z,97806.67
2018-01-20T00:46:18.004Z,97808.30
2018-01-20T00:48:45.765Z,97809.77
2018-01-20T00:51:13.394Z,97807.59
2018-01-20T00:53:41.019Z,97813.98
2018-01-20T00:56:08.663Z,97810.55
2018-01-20T00:58:36.289Z,97809.44
2018-01-20T01:01:04.003Z,97804.47
2018-01-20T01:03:31.804Z,97796.00
2018-01-20T01:05:59.790Z,97792.64
2018-01-20T01:08:27.412Z,97787.59
2018-01-20T01:10:55.050Z,97778.88
2018-01-20T01:13:22.685Z,97779.59
2018-01-20T01:15:51.014Z,97783.40
2018-01-20T01:18:18.783Z,97783.40
2018-01-20T01:20:46.404Z,97787.51
2018-01-20T01:23:14.023Z,97779.62
2018-01-20T01:25:41.627Z,97783.86
2018-01-20T01:28:09.370Z,97777.37
2018-01-20T01:30:37.088Z,97775.67
2018-01-20T01:33:04.872Z,97776.97
2018-01-20T01:35:32.492Z,97774.73
2018-01-20T01:38:00.115Z,97774.55
2018-01-20T01:40:27.894Z,97773.91
2018-01-20T01:42:55.499Z,97772.84
2018-01-20T01:45:23.177Z,97769.69
2018-01-20T01:47:50.789Z,97763.95
2018-01-20T01:50:18.431Z,97747.83
2018-01-20T01:52:46.244Z,97751.98
2018-01-20T01:55:13.948Z,97747.11
2018-01-20T01:57:41.565Z,97739.69
2018-01-20T02:00:09.203Z,97745.97
2018-01-20T02:02:36.933Z,97735.02
2018-01-20T02:05:04.729Z,97732.25
2018-01-20T02:07:32.363Z,97721.00
2018-01-20T02:10:00.089Z,97714.34
2018-01-20T02:12:27.799Z,97715.59
2018-01-20T02:14:55.663Z,97711.50
2018-01-20T02:17:23.655Z,97707.48
2018-01-20T02:19:51.604Z,97711.44
2018-01-20T02:22:19.573Z,97712.51
2018-01-20T02:24:47.335Z,97715.94
2018-01-20T02:27:14.935Z,97702.33
2018-01-20T02:29:42.583Z,97705.34
2018-01-20T02:32:10.179Z,97697.66
2018-01-20T02:34:37.797Z,97696.29
2018-01-20T02:37:05.400Z,97691.91
2018-01-20T02:39:33.003Z,97691.31
2018-01-20T02:42:00.864Z,97689.38
2018-01-20T02:44:29.863Z,97684.19
2018-01-20T02:46:57.553Z,97684.37
2018-01-20T02:49:25.204Z,97674.73
2018-01-20T02:51:53.107Z,97661.12
2018-01-20T02:54:20.760Z,97666.33
2018-01-20T02:56:48.539Z,97667.33
2018-01-20T02:59:16.140Z,97667.70
2018-01-20T03:01:43.904Z,97661.92
2018-01-20T03:04:11.529Z,97665.58
2018-01-20T03:06:39.263Z,97670.02
2018-01-20T03:09:06.954Z,97660.28
2018-01-20T03:11:34.576Z,97655.23
2018-01-20T03:14:02.384Z,97651.38
2018-01-20T03:16:30.058Z,97646.42
2018-01-20T03:18:57.824Z,97647.06
2018-01-20T03:21:25.653Z,97644.22
2018-01-20T03:23:53.284Z,97637.54
2018-01-20T03:26:21.091Z,97636.96
2018-01-20T03:28:48.723Z,97633.40
2018-01-20T03:31:16.316Z,97634.59
2018-01-20T03:33:44.425Z,97632.39
2018-01-20T03:36:12.145Z,97636.67
2018-01-20T03:38:39.823Z,97627.72
2018-01-20T03:41:07.575Z,97631.72
2018-01-20T03:43:35.263Z,97637.47
2018-01-20T03:46:02.902Z,97633.98
2018-01-20T03:48:30.683Z,97630.27
2018-01-20T03:50:58.285Z,97628.50
2018-01-20T03:53:26.049Z,97630.70
2018-01-20T03:55:53.859Z,97635.59
2018-01-20T03:58:21.479Z,97629.75
2018-01-20T04:00:49.128Z,97632.83
2018-01-20T04:03:16.939Z,97629.59
2018-01-20T04:05:44.618Z,97619.27
2018-01-20T04:08:12.363Z,97617.91
2018-01-20T04:10:40.273Z,97617.66
2018-01-20T04:13:08.035Z,97611.03
2018-01-20T04:15:35.669Z,97606.18
2018-01-20T04:18:03.279Z,97606.30
2018-01-20T04:20:30.885Z,97605.78
2018-01-20T04:22:58.532Z,97615.90
2018-01-20T04:25:26.293Z,97604.17
2018-01-20T04:27:54.069Z,97610.45
2018-01-20T04:30:21.834Z,97611.30
2018-01-20T04:32:49.566Z,97603.28
2018-01-20T04:35:17.188Z,97606.97
2018-01-20T04:37:44.969Z,97605.63
2018-01-20T04:40:12.580Z,97603.14
2018-01-20T04:42:40.369Z,97606.34
2018-01-20T04:45:08.039Z,97599.71
2018-01-20T04:47:35.859Z,97606.53
2018-01-20T04:50:03.664Z,97610.00
2018-01-20T04:52:31.341Z,97604.03
2018-01-20T04:54:59.008Z,97597.13
2018-01-20T04:57:26.685Z,97599.69
2018-01-20T04:59:54.405Z,97602.45
2018-01-20T05:02:22.054Z,97609.66
2018-01-20T05:04:49.658Z,97606.31
2018-01-20T05:07:17.555Z,97608.08
2018-01-20T05:09:45.184Z,97599.36
2018-01-20T05:12:12.800Z,97600.84
2018-01-20T05:14:40.414Z,97596.01
2018-01-20T05:17:08.105Z,97609.80
2018-01-20T05:19:35.875Z,97608.16
2018-01-20T05:22:03.510Z,97599.89
2018-01-20T05:24:31.140Z,97610.05
2018-01-20T05:26:59.073Z,97604.62
2018-01-20T05:29:26.753Z,97602.77
2018-01-20T05:31:54.445Z,97593.29
2018-01-20T05:34:22.095Z,97591.30
2018-01-20T05:36:49.910Z,97593.03
2018-01-20T05:39:17.588Z,97593.15
2018-01-20T05:41:45.525Z,97605.63
2018-01-20T05:44:13.145Z,97602.46
2018-01-20T05:46:40.763Z,97602.50
2018-01-20T05:49:08.395Z,97601.03
2018-01-20T05:51:36.028Z,97603.20
2018-01-20T05:54:03.988Z,97604.17
2018-01-20T05:56:31.720Z,97599.30
2018-01-20T05:58:59.509Z,97606.14
2018-01-20T06:01:27.195Z,97604.77
2018-01-20T06:03:54.943Z,97592.97
2018-01-20T06:06:22.578Z,97595.76
2018-01-20T06:08:50.294Z,97600.31
2018-01-20T06:11:17.958Z,97598.59
2018-01-20T06:13:45.916Z,97604.44
2018-01-20T06:16:13.749Z,97605.87
2018-01-20T06:18:41.548Z,97599.56
2018-01-20T06:21:09.264Z,97604.45
2018-01-20T06:23:36.920Z,97594.86
2018-01-20T06:26:04.794Z,97601.29
2018-01-20T06:28:32.473Z,97601.20
2018-01-20T06:31:00.195Z,97590.26
2018-01-20T06:33:27.910Z,97587.00
2018-01-20T06:35:55.580Z,97589.37
2018-01-20T06:38:23.466Z,97590.44
2018-01-20T06:40:51.963Z,97589.09
2018-01-20T06:43:19.584Z,97587.05
2018-01-20T06:45:47.348Z,97585.94
2018-01-20T06:48:14.999Z,97586.34
2018-01-20T06:50:42.760Z,97579.45
2018-01-20T06:53:10.400Z,97581.00
2018-01-20T06:55:38.218Z,97580.88
2018-01-20T06:58:05.865Z,97577.64
2018-01-20T07:00:33.501Z,97577.35
2018-01-20T07:03:01.215Z,97583.92
2018-01-20T07:05:28.830Z,97584.13
2018-01-20T07:07:56.645Z,97582.77
2018-01-20T07:10:24.362Z,97585.42
2018-01-20T07:12:51.991Z,97582.88
2018-01-20T07:15:19.624Z,97582.91
2018-01-20T07:17:47.431Z,97586.44
2018-01-20T07:20:15.175Z,97589.73
2018-01-20T07:22:42.834Z,97588.13
2018-01-20T07:25:10.489Z,97588.23
2018-01-20T07:27:38.513Z,97588.78
2018-01-20T07:30:06.123Z,97583.92
2018-01-20T07:32:33.963Z,97587.24
2018-01-20T07:35:01.584Z,97573.91
2018-01-20T07:37:29.240Z,97578.59
2018-01-20T07:40:02.533Z,97572.03
2018-01-20T07:42:30.144Z,97573.29
2018-01-20T07:44:57.761Z,97576.63
2018-01-20T07:47:25.613Z,97560.95
2018-01-20T07:49:53.320Z,97564.97
2018-01-20T07:52:20.935Z,97557.73
2018-01-20T07:54:48.578Z,97558.95
2018-01-20T07:57:16.232Z,97554.39
2018-01-20T07:59:44.108Z,97545.69
2018-01-20T08:02:11.848Z,97539.50
2018-01-20T08:04:39.486Z,97533.91
2018-01-20T08:07:07.155Z,97533.20
2018-01-20T08:09:34.867Z,97538.06
2018-01-20T08:12:02.571Z,97537.19
2018-01-20T08:14:30.256Z,97539.20
2018-01-20T08:16:58.009Z,97532.89
2018-01-20T08:19:25.664Z,97536.02
2018-01-20T08:21:53.341Z,97524.53
2018-01-20T08:24:21.308Z,97530.56
2018-01-20T08:26:48.950Z,97529.63
2018-01-20T08:29:16.694Z,97526.79
2018-01-20T08:31:44.333Z,97534.14
2018-01-20T08:34:12.009Z,97527.32
2018-01-20T08:36:39.735Z,97534.91
2018-01-20T08:39:07.595Z,97518.94
2018-01-20T08:41:35.249Z,97520.52
2018-01-20T08:44:03.041Z,97518.13
2018-01-20T08:46:30.734Z,97517.85
2018-01-20T08:48:58.496Z,97515.56
2018-01-20T08:51:26.295Z,97519.42
2018-01-20T08:53:53.954Z,97518.11
2018-01-20T08:56:21.840Z,97513.92
2018-01-20T08:58:49.548Z,97518.53
2018-01-20T09:01:17.245Z,97519.98
2018-01-20T09:03:44.970Z,97514.12
2018-01-20T09:06:12.604Z,97508.50
2018-01-20T09:08:40.254Z,97521.43
2018-01-20T09:11:07.915Z,97514.48
2018-01-20T09:13:35.533Z,97509.69
2018-01-20T09:16:03.301Z,97510.48
2018-01-20T09:18:31.314Z,97499.70
2018-01-20T09:20:59.173Z,97490.47
2018-01-20T09:23:26.790Z,97489.67
2018-01-20T09:25:54.556Z,97489.80
2018-01-20T09:28:22.211Z,97479.13
2018-01-20T09:30:50.175Z,97474.94
2018-01-20T09:33:17.860Z,97478.62
2018-01-20T09:35:45.495Z,97473.78
2018-01-20T09:38:13.131Z,97462.31
2018-01-20T09:40:40.866Z,97461.79
2018-01-20T09:43:08.602Z,97457.20
2018-01-20T09:45:36.260Z,97444.23
2018-01-20T09:48:03.910Z,97448.33
2018-01-20T09:50:31.623Z,97441.13
2018-01-20T09:52:59.429Z,97440.30
2018-01-20T09:55:27.036Z,97445.03
2018-01-20T09:57:54.713Z,97439.64
2018-01-20T10:00:22.429Z,97429.86
2018-01-20T10:02:50.139Z,97416.59
2018-01-20T10:05:17.765Z,97408.53
2018-01-20T10:07:45.420Z,97411.16
2018-01-20T10:10:13.040Z,97403.22
2018-01-20T10:12:40.737Z,97401.41
2018-01-20T10:15:08.377Z,97394.53
2018-01-20T10:17:36.119Z,97395.61
2018-01-20T10:20:03.926Z,97387.56
2018-01-20T10:22:31.678Z,97388.50
2018-01-20T10:24:59.289Z,97383.12
2018-01-20T10:27:26.997Z,97375.28
2018-01-20T10:29:54.919Z,97365.63
2018-01-20T10:32:22.735Z,97358.70
2018-01-20T10:34:50.364Z,97354.73
2018-01-20T10:37:18.086Z,97349.84
2018-01-20T10:39:45.777Z,97337.73
2018-01-20T10:42:13.745Z,97344.39
2018-01-20T10:44:41.430Z,97329.63
2018-01-20T10:47:09.060Z,97326.77
2018-01-20T10:49:36.785Z,97326.16
2018-01-20T10:52:05.065Z,97316.17
2018-01-20T10:54:32.685Z,97309.77
2018-01-20T10:57:00.409Z,97310.25
2018-01-20T10:59:28.046Z,97290.23
2018-01-20T11:01:55.746Z,97282.66
2018-01-20T11:04:23.537Z,97280.17
2018-01-20T11:06:51.402Z,97264.08
2018-01-20T11:09:19.081Z,97258.70
2018-01-20T11:11:46.727Z,97257.70
2018-01-20T11:14:14.352Z,97244.32
2018-01-20T11:16:42.235Z,97235.24
2018-01-20T11:19:09.962Z,97228.39
2018-01-20T11:21:37.560Z,97227.53
2018-01-20T11:24:05.205Z,97221.67
2018-01-20T11:26:33.517Z,97208.17
2018-01-20T11:29:01.176Z,97203.61
2018-01-20T11:31:28.805Z,97194.76
2018-01-20T11:40:37.502Z,97156.18
2018-01-20T11:43:11.182Z,97147.09
2018-01-20T11:56:03.414Z,97100.95
2018-01-20T11:58:31.238Z,97091.10
2018-01-20T12:00:58.869Z,97079.59
2018-01-20T12:03:26.539Z,97076.47
2018-01-20T12:05:54.172Z,97069.04
2018-01-20T12:08:22.106Z,97062.83
2018-01-20T12:10:50.078Z,97058.09
2018-01-20T12:13:17.740Z,97042.27
2018-01-20T12:15:45.446Z,97034.09
2018-01-20T12:18:13.081Z,97026.28
2018-01-20T12:20:40.740Z,97017.77
2018-01-20T12:23:08.365Z,97010.44
2018-01-20T12:25:36.014Z,97007.91
2018-01-20T12:28:03.709Z,96998.82
2018-01-20T12:30:31.581Z,96990.95
2018-01-20T12:32:59.400Z,96980.21
2018-01-20T12:35:27.004Z,96977.27
2018-01-20T12:37:54.742Z,96972.00
2018-01-20T12:40:22.487Z,96967.55
2018-01-20T12:42:50.069Z,96959.41
2018-01-20T12:45:17.701Z,96955.83
2018-01-20T12:47:45.314Z,96936.72
2018-01-20T12:50:12.872Z,96932.04
2018-01-20T12:52:40.486Z,96920.01
2018-01-20T12:55:08.090Z,96911.87
2018-01-20T12:57:35.724Z,96905.68
2018-01-20T13:00:03.354Z,96900.53
2018-01-20T13:02:31.759Z,96891.86
2018-01-20T13:04:59.506Z,96891.11
2018-01-20T13:07:27.136Z,96865.61
2018-01-20T13:09:54.751Z,96867.50
2018-01-20T13:12:22.383Z,96867.77
2018-01-20T13:14:49.980Z,96862.30
2018-01-20T13:17:17.620Z,96850.61
2018-01-20T13:19:45.296Z,96836.09
2018-01-20T13:22:12.906Z,96832.27
2018-01-20T13:24:40.521Z,96824.91
2018-01-20T13:27:08.166Z,96813.19
2018-01-20T13:29:35.800Z,96819.67
2018-01-20T13:32:03.449Z,96799.75
2018-01-20T13:34:31.185Z,96799.77
2018-01-20T13:36:58.874Z,96787.98
2018-01-20T13:39:26.569Z,96782.64
2018-01-20T13:41:54.346Z,96780.22
2018-01-20T13:44:22.014Z,96777.02
2018-01-20T13:46:49.711Z,96764.19
2018-01-20T13:49:17.396Z,96758.05
2018-01-20T13:51:46.194Z,96756.87
2018-01-20T13:54:13.911Z,96748.83
2018-01-20T13:56:41.654Z,96738.74
2018-01-20T13:59:09.316Z,96726.42
2018-01-20T14:01:37.066Z,96714.74
2018-01-20T14:04:04.880Z,96713.49
2018-01-20T14:06:32.747Z,96704.20
2018-01-20T14:09:00.516Z,96692.44
2018-01-20T14:11:28.159Z,96687.80
2018-01-20T14:13:55.957Z,96686.89
2018-01-20T14:16:25.037Z,96671.45
2018-01-20T14:18:52.714Z,96675.24
2018-01-20T14:21:20.409Z,96667.89
2018-01-20T14:23:48.039Z,96670.05
2018-01-20T14:26:15.639Z,96662.17
2018-01-20T14:28:43.296Z,96646.06
2018-01-20T14:31:10.925Z,96647.70
2018-01-20T14:33:38.576Z,96646.81
2018-01-20T14:36:06.195Z,96636.44
2018-01-20T14:38:33.905Z,96629.53
2018-01-20T14:41:01.536Z,96628.73
2018-01-20T14:43:29.146Z,96621.70
2018-01-20T14:45:56.761Z,96605.06
2018-01-20T14:48:24.934Z,96606.08
2018-01-20T14:54:29.836Z,96586.31
2018-01-20T15:10:24.307Z,96556.63
2018-01-20T15:13:00.221Z,96547.64
2018-01-20T15:15:27.991Z,96542.75
2018-01-20T15:17:55.760Z,96525.14
2018-01-20T15:20:23.361Z,96513.20
2018-01-20T15:22:51.006Z,96507.63
2018-01-20T15:25:18.656Z,96506.64
2018-01-20T15:27:46.300Z,96490.06
2018-01-20T15:30:14.687Z,96487.80
2018-01-20T15:32:42.336Z,96472.85
2018-01-20T15:35:10.198Z,96462.73
2018-01-20T15:37:37.856Z,96458.31
2018-01-20T15:40:05.493Z,96453.36
2018-01-20T15:42:33.263Z,96447.87
2018-01-20T15:45:00.904Z,96443.86
2018-01-20T15:47:28.782Z,96440.48
2018-01-20T15:49:56.550Z,96429.92
2018-01-20T15:52:24.206Z,96430.53
2018-01-20T15:54:51.836Z,96428.61
2018-01-20T15:57:19.519Z,96415.33
2018-01-20T15:59:47.491Z,96403.95
2018-01-20T16:02:15.118Z,96406.64
2018-01-20T16:04:42.897Z,96399.83
2018-01-20T16:07:10.522Z,96393.49
2018-01-20T16:09:39.166Z,96387.56
2018-01-20T16:12:06.865Z,96380.83
2018-01-20T16:14:34.495Z,96379.41
2018-01-20T16:17:02.145Z,96375.30
2018-01-20T16:19:29.799Z,96376.48
2018-01-20T16:21:57.540Z,96370.69
2018-01-20T16:24:25.216Z,96373.06
2018-01-20T16:26:52.866Z,96365.39
2018-01-20T16:29:20.517Z,96366.22
2018-01-20T16:31:48.175Z,96358.98
2018-01-20T16:34:16.022Z,96359.06
2018-01-20T16:36:43.733Z,96358.54
2018-01-20T16:39:11.377Z,96348.61
2018-01-20T16:41:39.021Z,96349.69
2018-01-20T16:44:06.636Z,96342.20
2018-01-20T16:46:34.408Z,96343.71
2018-01-20T16:49:02.048Z,96339.83
2018-01-20T16:51:29.703Z,96340.77
2018-01-20T16:53:57.358Z,96337.80
2018-01-20T16:56:29.254Z,96343.17
2018-01-20T16:58:53.471Z,96344.39
2018-01-20T17:10:51.331Z,96336.09
2018-01-20T17:13:19.067Z,96336.53
2018-01-20T17:15:46.759Z,96328.52
2018-01-20T17:18:14.576Z,96325.92
2018-01-20T17:20:42.883Z,96312.59
2018-01-20T17:23:10.691Z,96309.20
2018-01-20T17:25:38.728Z,96310.52
2018-01-20T17:28:07.167Z,96308.58
2018-01-20T17:30:34.815Z,96306.95
2018-01-20T17:33:02.501Z,96308.30
2018-01-20T17:35:30.271Z,96311.69
2018-01-20T17:37:58.044Z,96308.48
2018-01-20T17:40:25.894Z,96315.59
2018-01-20T17:42:53.810Z,96310.59
2018-01-20T17:45:21.425Z,96314.53
2018-01-20T17:47:49.032Z,96310.49
2018-01-20T17:50:16.680Z,96311.42
2018-01-20T17:52:44.290Z,96316.88
2018-01-20T17:55:11.917Z,96313.59
2018-01-20T17:57:39.615Z,96318.35
2018-01-20T18:00:07.272Z,96315.73
2018-01-20T18:02:34.889Z,96323.60
2018-01-20T18:05:02.540Z,96317.25
2018-01-20T18:07:30.171Z,96315.19
2018-01-20T18:09:57.827Z,96316.17
2018-01-20T18:12:25.453Z,96315.82
2018-01-20T18:14:53.067Z,96300.75
2018-01-20T18:17:21.292Z,96294.45
2018-01-20T18:19:50.800Z,96300.59
2018-01-20T18:32:22.208Z,96312.84
2018-01-20T18:34:49.896Z,96306.94
2018-01-20T18:37:17.576Z,96310.45
2018-01-20T18:39:47.424Z,96306.48
2018-01-20T18:42:15.190Z,96310.42
2018-01-20T18:44:43.778Z,96306.52
2018-01-20T18:47:11.633Z,96308.03
2018-01-20T18:49:39.272Z,96312.89
2018-01-20T18:52:06.921Z,96314.94
2018-01-20T18:54:34.792Z,96315.48
2018-01-20T18:57:02.486Z,96314.36
2018-01-20T18:59:30.170Z,96318.31
2018-01-20T19:01:57.816Z,96326.89
2018-01-20T19:04:25.550Z,96326.41
2018-01-20T19:06:53.177Z,96319.96
2018-01-20T19:09:20.930Z,96313.11
2018-01-20T19:11:48.614Z,96310.47
2018-01-20T19:14:16.242Z,96314.29
2018-01-20T19:16:43.973Z,96317.04
2018-01-20T19:19:11.680Z,96315.98
2018-01-20T19:21:39.351Z,96309.97
2018-01-20T19:24:07.001Z,96316.74
2018-01-20T19:26:34.736Z,96315.10
2018-01-20T19:29:02.371Z,96323.23
2018-01-20T19:31:30.151Z,96328.23
2018-01-20T19:33:57.942Z,96328.66
2018-01-20T19:36:25.565Z,96333.93
2018-01-20T19:38:53.312Z,96332.58
2018-01-20T19:41:20.970Z,96336.38
2018-01-20T19:43:48.791Z,96332.79
2018-01-20T19:46:16.471Z,96332.08
2018-01-20T19:48:44.097Z,96323.80
2018-01-20T19:51:11.771Z,96322.30
2018-01-20T19:53:39.385Z,96326.28
2018-01-20T19:56:06.997Z,96325.59
2018-01-20T19:58:34.634Z,96325.61
2018-01-20T20:01:02.328Z,96328.92
2018-01-20T20:03:30.087Z,96326.48
2018-01-20T20:05:57.811Z,96335.36
2018-01-20T20:08:25.507Z,96331.27
2018-01-20T20:10:53.153Z,96331.20
2018-01-20T20:13:20.892Z,96335.58
2018-01-20T20:15:48.630Z,96334.92
2018-01-20T20:18:16.384Z,96333.13
2018-01-20T20:20:44.022Z,96339.77
2018-01-20T20:23:11.648Z,96335.53
2018-01-20T20:25:39.342Z,96327.55
2018-01-20T20:28:06.970Z,96337.55
2018-01-20T20:30:34.636Z,96328.39
2018-01-20T20:33:02.371Z,96333.91
2018-01-20T20:35:30.071Z,96329.47
2018-01-20T20:37:57.728Z,96326.57
2018-01-20T20:40:25.476Z,96326.30
2018-01-20T20:42:53.153Z,96330.94
2018-01-20T20:45:20.951Z,96328.48
2018-01-20T20:47:48.676Z,96316.90
2018-01-20T20:50:16.306Z,96327.19
2018-01-20T20:52:43.951Z,96319.36
2018-01-20T20:55:11.690Z,96324.73
2018-01-20T20:57:39.495Z,96328.92
2018-01-20T21:00:07.156Z,96328.31
2018-01-20T21:02:35.013Z,96327.98
2018-01-20T21:05:02.668Z,96323.08
2018-01-20T21:07:30.328Z,96326.83
2018-01-20T21:09:57.965Z,96321.13
2018-01-20T21:12:25.610Z,96328.46
2018-01-20T21:14:53.281Z,96316.26
2018-01-20T21:17:20.981Z,96315.70
2018-01-20T21:19:48.718Z,96314.23
2018-01-20T21:22:16.351Z,96313.65
2018-01-20T21:24:44.057Z,96320.97
2018-01-20T21:27:11.705Z,96326.05
2018-01-20T21:29:39.373Z,96322.03
2018-01-20T21:32:07.047Z,96311.80
2018-01-20T21:34:34.707Z,96317.45
2018-01-20T21:37:02.402Z,96320.05
2018-01-20T21:39:30.016Z,96322.68
2018-01-20T21:41:57.672Z,96331.22
2018-01-20T21:44:25.352Z,96328.91
2018-01-20T21:46:53.115Z,96338.12
2018-01-20T21:49:20.778Z,96334.27
2018-01-20T21:51:48.641Z,96335.92
2018-01-20T21:54:16.291Z,96336.09
2018-01-20T21:56:44.077Z,96328.92
2018-01-20T21:59:11.722Z,96335.09
2018-01-20T22:01:39.332Z,96337.73
2018-01-20T22:04:07.156Z,96343.92
2018-01-20T22:06:34.941Z,96344.77
2018-01-20T22:09:02.710Z,96345.78
2018-01-20T22:11:52.285Z,96346.48
2018-01-20T22:14:24.893Z,96350.37
2018-01-20T22:16:53.053Z,96356.83
2018-01-20T22:19:21.120Z,96361.95
2018-01-20T22:21:49.477Z,96364.38
2018-01-20T22:24:17.288Z,96366.74
2018-01-20T22:26:45.607Z,96372.37
2018-01-20T22:32:34.975Z,96375.39
2018-01-20T22:35:02.812Z,96382.33
2018-01-20T22:37:33.976Z,96387.75
2018-01-20T22:40:11.250Z,96398.14
2018-01-20T22:42:38.905Z,96397.27
2018-01-20T22:45:06.667Z,96405.05
2018-01-20T22:47:34.395Z,96414.27
2018-01-20T22:50:02.211Z,96424.14
2018-01-20T22:52:29.882Z,96427.48
2018-01-20T22:54:57.525Z,96424.41
2018-01-20T22:57:25.230Z,96433.02
2018-01-20T22:59:53.040Z,96437.16
2018-01-20T23:02:20.685Z,96437.84
2018-01-20T23:04:48.306Z,96442.75
2018-01-20T23:07:16.130Z,96452.65
2018-01-20T23:09:43.859Z,96459.64
2018-01-20T23:12:11.785Z,96462.34
2018-01-20T23:14:39.603Z,96468.02
2018-01-20T23:17:07.542Z,96482.16
2018-01-20T23:19:35.312Z,96483.17
2018-01-20T23:22:03.047Z,96487.63
2018-01-20T23:24:30.703Z,96495.05
2018-01-20T23:26:58.352Z,96494.75
2018-01-20T23:29:26.067Z,96499.52
2018-01-20T23:31:53.707Z,96502.07
2018-01-20T23:34:21.535Z,96509.31
2018-01-20T23:36:49.167Z,96513.69
2018-01-20T23:39:16.814Z,96523.64
2018-01-20T23:41:44.586Z,96530.06
2018-01-20T23:44:12.261Z,96530.59
2018-01-20T23:46:40.004Z,96539.73
2018-01-20T23:49:07.616Z,96542.66
2018-01-20T23:51:35.257Z,96551.78
2018-01-20T23:54:02.907Z,96548.66
2018-01-20T23:56:30.670Z,96546.83
2018-01-20T23:58:58.350Z,96555.41
